createdAt,value
2022-11-05T00:00:11.172Z,4.80
2022-11-05T00:02:48.263Z,4.90
2022-11-05T00:05:08.721Z,4.90
2022-11-05T00:07:34.746Z,4.90
2022-11-05T00:09:36.931Z,5.00
2022-11-05T00:11:57.453Z,5.00
2022-11-05T00:14:17.912Z,5.00
2022-11-05T00:16:40.051Z,5.00
2022-11-05T00:18:41.954Z,5.00
2022-11-05T00:20:43.969Z,5.00
2022-11-05T00:23:04.455Z,4.90
2022-11-05T00:25:18.812Z,5.00
2022-11-05T00:27:20.670Z,5.10
2022-11-05T00:29:22.502Z,5.10
2022-11-05T00:31:24.403Z,5.00
2022-11-05T00:33:26.530Z,5.10
2022-11-05T00:35:28.287Z,5.00
2022-11-05T00:37:30.313Z,5.00
2022-11-05T00:39:32.172Z,5.00
2022-11-05T00:41:34.051Z,5.00
2022-11-05T00:43:54.445Z,5.10
2022-11-05T00:45:56.651Z,5.00
2022-11-05T00:48:16.850Z,5.00
2022-11-05T00:50:20.359Z,5.10
2022-11-05T00:52:40.669Z,5.10
2022-11-05T00:54:42.500Z,5.10
2022-11-05T00:56:44.384Z,5.10
2022-11-05T00:58:46.256Z,5.00
2022-11-05T01:00:52.794Z,5.10
2022-11-05T01:02:58.124Z,5.00
2022-11-05T01:05:00.011Z,5.10
2022-11-05T01:07:01.858Z,5.10
2022-11-05T01:09:03.945Z,5.10
2022-11-05T01:11:10.637Z,5.10
2022-11-05T01:13:13.655Z,5.10
2022-11-05T01:15:16.122Z,5.10
2022-11-05T01:17:18.008Z,5.00
2022-11-05T01:19:19.859Z,5.00
2022-11-05T01:21:21.749Z,5.00
2022-11-05T01:23:23.587Z,5.00
2022-11-05T01:25:25.741Z,4.90
2022-11-05T01:27:27.612Z,4.90
2022-11-05T01:29:29.579Z,5.00
2022-11-05T01:31:31.406Z,5.00
2022-11-05T01:33:33.313Z,5.00
2022-11-05T01:35:35.304Z,5.00
2022-11-05T01:37:37.861Z,4.90
2022-11-05T01:39:39.749Z,4.90
2022-11-05T01:41:41.663Z,4.90
2022-11-05T01:43:51.847Z,4.90
2022-11-05T01:45:57.564Z,4.90
2022-11-05T01:48:14.008Z,4.90
2022-11-05T01:50:24.970Z,4.80
2022-11-05T01:52:29.293Z,4.90
2022-11-05T01:54:32.950Z,4.90
2022-11-05T01:56:37.954Z,4.90
2022-11-05T01:58:53.264Z,4.90
2022-11-05T02:00:57.355Z,4.80
2022-11-05T02:02:59.411Z,4.80
2022-11-05T02:05:02.404Z,4.80
2022-11-05T02:07:06.019Z,4.80
2022-11-05T02:09:23.462Z,4.80
2022-11-05T02:11:25.986Z,4.70
2022-11-05T02:13:27.826Z,4.60
2022-11-05T02:16:03.523Z,4.60
2022-11-05T02:18:15.736Z,4.60
2022-11-05T02:20:39.625Z,4.50
2022-11-05T02:23:01.444Z,4.60
2022-11-05T02:25:27.546Z,4.60
2022-11-05T02:28:06.933Z,4.60
2022-11-05T02:30:33.620Z,4.60
2022-11-05T02:32:55.900Z,4.60
2022-11-05T02:35:15.293Z,4.60
2022-11-05T02:37:17.126Z,4.70
2022-11-05T02:39:24.793Z,4.70
2022-11-05T02:41:51.507Z,4.70
2022-11-05T02:44:03.258Z,4.70
2022-11-05T02:46:30.684Z,4.70
2022-11-05T02:48:53.046Z,4.70
2022-11-05T02:51:04.749Z,4.60
2022-11-05T02:53:19.530Z,4.50
2022-11-05T02:55:35.060Z,4.40
2022-11-05T02:57:37.324Z,4.40
2022-11-05T02:59:39.158Z,4.40
2022-11-05T03:01:43.964Z,4.40
2022-11-05T03:03:50.832Z,4.30
2022-11-05T03:06:37.500Z,4.30
2022-11-05T03:08:54.865Z,4.40
2022-11-05T03:11:11.478Z,4.40
2022-11-05T03:13:59.238Z,4.40
2022-11-05T03:16:07.735Z,4.50
2022-11-05T03:18:28.130Z,4.50
2022-11-05T03:21:01.050Z,4.40
2022-11-05T03:23:25.988Z,4.40
2022-11-05T03:25:30.616Z,4.30
2022-11-05T03:27:37.306Z,4.30
2022-11-05T03:29:47.498Z,4.30
2022-11-05T03:31:52.291Z,4.30
2022-11-05T03:33:56.481Z,4.20
2022-11-05T03:36:03.267Z,4.20
2022-11-05T03:38:12.581Z,4.10
2022-11-05T03:40:16.682Z,4.10
2022-11-05T03:42:23.768Z,4.00
2022-11-05T03:44:30.888Z,4.00
2022-11-05T03:46:55.280Z,4.00
2022-11-05T03:49:02.075Z,4.00
2022-11-05T03:51:12.885Z,4.00
2022-11-05T03:53:26.266Z,4.00
2022-11-05T03:55:48.261Z,4.10
2022-11-05T03:57:53.786Z,4.20
2022-11-05T03:59:55.897Z,4.20
2022-11-05T04:01:58.540Z,4.20
2022-11-05T04:04:00.572Z,4.20
2022-11-05T04:06:25.836Z,4.30
2022-11-05T04:09:05.896Z,4.30
2022-11-05T04:11:30.077Z,4.40
2022-11-05T04:13:33.279Z,4.30
2022-11-05T04:15:53.961Z,4.30
2022-11-05T04:17:58.950Z,4.40
2022-11-05T04:20:22.087Z,4.50
2022-11-05T04:22:44.235Z,4.50
2022-11-05T04:24:46.122Z,4.50
2022-11-05T04:26:48.038Z,4.50
2022-11-05T04:29:09.411Z,4.50
2022-11-05T04:31:11.435Z,4.50
2022-11-05T04:33:17.285Z,4.50
2022-11-05T04:35:19.140Z,4.50
2022-11-05T04:37:21.335Z,4.50
2022-11-05T04:39:23.307Z,4.50
2022-11-05T04:41:25.273Z,4.60
2022-11-05T04:43:27.115Z,4.60
2022-11-05T04:45:33.069Z,4.50
2022-11-05T04:47:34.920Z,4.50
2022-11-05T04:49:36.795Z,4.40
2022-11-05T04:51:38.647Z,4.30
2022-11-05T04:53:40.528Z,4.30
2022-11-05T04:55:43.425Z,4.30
2022-11-05T04:57:49.463Z,4.30
2022-11-05T04:59:52.087Z,4.30
2022-11-05T05:01:53.986Z,4.30
2022-11-05T05:03:56.063Z,4.40
2022-11-05T05:06:03.771Z,4.40
2022-11-05T05:08:06.536Z,4.50
2022-11-05T05:10:10.330Z,4.50
2022-11-05T05:12:12.184Z,4.70
2022-11-05T05:14:14.116Z,4.70
2022-11-05T05:16:25.539Z,4.70
2022-11-05T05:18:27.415Z,4.80
2022-11-05T05:20:47.946Z,4.90
2022-11-05T05:22:58.879Z,4.90
2022-11-05T05:25:00.740Z,5.00
2022-11-05T05:27:02.630Z,5.00
2022-11-05T05:29:06.047Z,5.00
2022-11-05T05:31:07.928Z,5.00
2022-11-05T05:33:10.101Z,5.10
2022-11-05T05:35:12.192Z,5.00
2022-11-05T05:37:14.075Z,5.10
2022-11-05T05:39:16.044Z,5.10
2022-11-05T05:41:17.964Z,5.10
2022-11-05T05:43:19.866Z,5.10
2022-11-05T05:45:21.928Z,5.20
2022-11-05T05:47:23.914Z,5.30
2022-11-05T05:49:25.777Z,5.30
2022-11-05T05:51:27.761Z,5.40
2022-11-05T05:53:30.898Z,5.50
2022-11-05T05:55:32.819Z,5.60
2022-11-05T05:57:35.108Z,5.60
2022-11-05T05:59:37.076Z,5.70
2022-11-05T06:01:39.131Z,5.70
2022-11-05T06:03:41.113Z,5.60
2022-11-05T06:05:42.959Z,5.60
2022-11-05T06:07:44.821Z,5.60
2022-11-05T06:09:46.743Z,5.80
2022-11-05T06:11:48.616Z,5.90
2022-11-05T06:13:50.459Z,6.00
2022-11-05T06:15:52.491Z,6.00
2022-11-05T06:17:54.377Z,6.00
2022-11-05T06:19:56.214Z,6.10
2022-11-05T06:21:58.156Z,6.20
2022-11-05T06:24:01.698Z,6.10
2022-11-05T06:26:05.485Z,6.20
2022-11-05T06:28:07.385Z,6.30
2022-11-05T06:30:09.794Z,6.30
2022-11-05T06:32:11.691Z,6.40
2022-11-05T06:34:13.596Z,6.40
2022-11-05T06:36:17.330Z,6.50
2022-11-05T06:38:19.250Z,6.70
2022-11-05T06:40:21.227Z,6.70
2022-11-05T06:42:23.149Z,6.90
2022-11-05T06:44:24.972Z,7.00
2022-11-05T06:46:26.886Z,7.10
2022-11-05T06:48:29.385Z,7.20
2022-11-05T06:50:31.260Z,7.20
2022-11-05T06:52:39.895Z,7.20
2022-11-05T06:54:43.928Z,7.20
2022-11-05T06:56:45.751Z,7.20
2022-11-05T06:58:47.666Z,7.20
2022-11-05T07:00:50.054Z,7.20
2022-11-05T07:02:52.120Z,7.20
2022-11-05T07:04:54.262Z,7.20
2022-11-05T07:06:56.036Z,7.30
2022-11-05T07:08:57.859Z,7.20
2022-11-05T07:11:00.189Z,7.30
2022-11-05T07:13:06.761Z,7.60
2022-11-05T07:15:12.227Z,7.70
2022-11-05T07:17:14.131Z,7.80
2022-11-05T07:19:15.997Z,7.80
2022-11-05T07:21:19.695Z,7.70
2022-11-05T07:23:21.623Z,7.80
2022-11-05T07:25:23.463Z,7.80
2022-11-05T07:27:25.655Z,7.80
2022-11-05T07:29:27.424Z,7.80
2022-11-05T07:31:29.277Z,7.70
2022-11-05T07:33:36.147Z,7.90
2022-11-05T07:35:38.493Z,8.20
2022-11-05T07:37:51.224Z,8.30
2022-11-05T07:39:53.049Z,8.60
2022-11-05T07:41:55.371Z,8.60
2022-11-05T07:43:57.206Z,8.70
2022-11-05T07:45:59.547Z,9.00
2022-11-05T07:48:03.814Z,9.30
2022-11-05T07:50:08.109Z,9.40
2022-11-05T07:52:09.942Z,9.50
2022-11-05T07:54:11.870Z,9.60
2022-11-05T07:56:14.094Z,9.90
2022-11-05T07:58:15.943Z,10.00
2022-11-05T08:00:21.162Z,10.20
2022-11-05T08:02:23.299Z,10.30
2022-11-05T08:04:25.331Z,10.40
2022-11-05T08:06:27.223Z,10.20
2022-11-05T08:08:29.087Z,10.10
2022-11-05T08:10:31.127Z,10.10
2022-11-05T08:12:33.730Z,10.20
2022-11-05T08:14:35.458Z,10.00
2022-11-05T08:16:37.290Z,10.00
2022-11-05T08:18:39.562Z,10.10
2022-11-05T08:20:42.852Z,10.20
2022-11-05T08:22:45.066Z,10.30
2022-11-05T08:24:47.018Z,10.40
2022-11-05T08:26:48.977Z,10.30
2022-11-05T08:28:50.799Z,10.30
2022-11-05T08:30:55.358Z,10.30
2022-11-05T08:32:59.836Z,10.40
2022-11-05T08:35:01.889Z,10.40
2022-11-05T08:37:03.840Z,10.40
2022-11-05T08:39:05.686Z,10.40
2022-11-05T08:41:07.686Z,10.60
2022-11-05T08:43:11.898Z,10.60
2022-11-05T08:45:14.045Z,10.60
2022-11-05T08:47:15.890Z,10.60
2022-11-05T08:49:17.811Z,10.80
2022-11-05T08:51:19.744Z,10.80
2022-11-05T08:53:21.697Z,11.00
2022-11-05T08:55:23.727Z,10.90
2022-11-05T08:57:25.689Z,11.10
2022-11-05T08:59:29.832Z,11.40
2022-11-05T09:01:33.867Z,11.50
2022-11-05T09:03:36.368Z,11.40
2022-11-05T09:05:40.061Z,11.40
2022-11-05T09:07:41.971Z,11.40
2022-11-05T09:09:43.849Z,11.40
2022-11-05T09:12:10.630Z,11.40
2022-11-05T09:14:08.749Z,11.30
2022-11-05T09:16:25.341Z,11.30
2022-11-05T09:18:27.308Z,11.20
2022-11-05T09:20:29.342Z,11.20
2022-11-05T09:22:31.057Z,11.30
2022-11-05T09:24:32.973Z,11.40
2022-11-05T09:26:35.431Z,11.50
2022-11-05T09:28:37.446Z,11.50
2022-11-05T09:30:43.270Z,11.50
2022-11-05T09:32:45.171Z,11.40
2022-11-05T09:34:49.012Z,11.40
2022-11-05T09:36:50.881Z,11.40
2022-11-05T09:38:52.771Z,11.30
2022-11-05T09:41:07.321Z,11.40
2022-11-05T09:43:19.769Z,11.30
2022-11-05T09:45:24.998Z,11.40
2022-11-05T09:47:33.049Z,11.50
2022-11-05T09:49:50.373Z,11.60
2022-11-05T09:51:58.249Z,11.60
2022-11-05T09:54:03.479Z,11.60
2022-11-05T09:56:12.248Z,11.40
2022-11-05T09:58:34.476Z,11.40
2022-11-05T10:00:36.450Z,11.20
2022-11-05T10:02:47.328Z,11.30
2022-11-05T10:04:53.098Z,11.40
2022-11-05T10:07:02.915Z,11.50
2022-11-05T10:09:17.651Z,11.60
2022-11-05T10:11:48.188Z,11.80
2022-11-05T10:13:57.538Z,12.00
2022-11-05T10:16:23.615Z,12.40
2022-11-05T10:18:39.004Z,12.60
2022-11-05T10:20:43.695Z,12.30
2022-11-05T10:22:49.494Z,12.20
2022-11-05T10:24:55.074Z,12.10
2022-11-05T10:26:57.741Z,12.00
2022-11-05T10:28:59.889Z,12.00
2022-11-05T10:31:03.225Z,12.30
2022-11-05T10:33:06.562Z,12.40
2022-11-05T10:35:15.119Z,12.40
2022-11-05T10:37:17.734Z,12.30
2022-11-05T10:39:21.392Z,12.10
2022-11-05T10:41:47.511Z,12.20
2022-11-05T10:43:52.612Z,12.60
2022-11-05T10:46:03.997Z,12.90
2022-11-05T10:48:14.783Z,13.00
2022-11-05T10:50:24.604Z,13.00
2022-11-05T10:52:33.262Z,13.00
2022-11-05T10:54:36.146Z,13.00
2022-11-05T10:56:40.353Z,12.90
2022-11-05T10:58:55.076Z,12.70
2022-11-05T11:00:57.031Z,12.70
2022-11-05T11:03:02.027Z,12.70
2022-11-05T11:05:04.043Z,12.40
2022-11-05T11:07:06.174Z,12.30
2022-11-05T11:09:18.009Z,12.30
2022-11-05T11:11:41.529Z,12.30
2022-11-05T11:13:58.470Z,12.30
2022-11-05T11:16:24.374Z,12.50
2022-11-05T11:18:26.226Z,12.20
2022-11-05T11:20:29.471Z,12.10
2022-11-05T11:22:31.425Z,12.10
2022-11-05T11:24:48.242Z,12.10
2022-11-05T11:26:50.173Z,12.30
2022-11-05T11:29:16.274Z,12.40
2022-11-05T11:31:23.125Z,12.50
2022-11-05T11:33:28.269Z,12.50
2022-11-05T11:35:30.525Z,12.50
2022-11-05T11:37:41.812Z,12.30
2022-11-05T11:39:51.924Z,12.20
2022-11-05T11:41:57.694Z,12.00
2022-11-05T11:44:21.131Z,11.70
2022-11-05T11:46:23.138Z,11.50
2022-11-05T11:48:29.522Z,11.60
2022-11-05T11:50:31.488Z,11.70
2022-11-05T11:52:37.817Z,11.80
2022-11-05T11:54:39.931Z,11.90
2022-11-05T11:56:45.342Z,11.90
2022-11-05T11:58:54.821Z,11.90
2022-11-05T12:01:09.749Z,11.80
2022-11-05T12:03:29.198Z,11.80
2022-11-05T12:05:59.564Z,12.00
2022-11-05T12:08:27.593Z,11.90
2022-11-05T12:10:41.505Z,11.90
2022-11-05T12:12:51.075Z,12.10
2022-11-05T12:15:22.735Z,12.30
2022-11-05T12:17:36.264Z,12.50
2022-11-05T12:20:00.180Z,12.40
2022-11-05T12:22:39.878Z,12.40
2022-11-05T12:25:00.894Z,12.30
2022-11-05T12:27:19.854Z,12.20
2022-11-05T12:29:46.608Z,12.50
2022-11-05T12:32:46.920Z,12.40
2022-11-05T12:35:10.094Z,12.30
2022-11-05T12:37:39.285Z,12.20
2022-11-05T12:40:09.438Z,12.20
2022-11-05T12:42:20.141Z,12.30
2022-11-05T12:44:37.034Z,12.10
2022-11-05T12:46:46.339Z,11.90
2022-11-05T12:48:57.287Z,11.80
2022-11-05T12:51:19.170Z,11.90
2022-11-05T12:53:47.673Z,12.00
2022-11-05T12:55:53.802Z,12.00
2022-11-05T12:58:14.308Z,11.90
2022-11-05T13:00:24.877Z,11.80
2022-11-05T13:02:32.889Z,11.90
2022-11-05T13:04:50.228Z,11.90
2022-11-05T13:06:55.650Z,11.70
2022-11-05T13:09:09.136Z,11.70
2022-11-05T13:11:34.678Z,11.60
2022-11-05T13:13:54.042Z,11.60
2022-11-05T13:16:03.568Z,11.50
2022-11-05T13:18:20.421Z,11.50
2022-11-05T13:20:26.551Z,11.40
2022-11-05T13:22:33.888Z,11.30
2022-11-05T13:24:50.194Z,11.30
2022-11-05T13:27:06.978Z,11.20
2022-11-05T13:29:16.815Z,11.20
2022-11-05T13:31:36.272Z,11.20
2022-11-05T13:33:44.387Z,11.20
2022-11-05T13:36:19.495Z,11.10
2022-11-05T13:38:44.438Z,11.00
2022-11-05T13:40:57.900Z,11.00
2022-11-05T13:43:02.061Z,10.90
2022-11-05T13:45:25.186Z,10.90
2022-11-05T13:47:51.703Z,10.90
2022-11-05T13:50:41.405Z,10.90
2022-11-05T13:52:51.650Z,10.80
2022-11-05T13:54:56.475Z,10.80
2022-11-05T13:57:11.488Z,10.70
2022-11-05T13:59:45.569Z,10.70
2022-11-05T14:01:50.481Z,10.60
2022-11-05T14:03:55.451Z,10.60
2022-11-05T14:06:05.655Z,10.50
2022-11-05T14:08:16.515Z,10.40
2022-11-05T14:10:36.947Z,10.40
2022-11-05T14:12:40.841Z,10.40
2022-11-05T14:14:52.251Z,10.40
2022-11-05T14:17:08.170Z,10.30
2022-11-05T14:19:19.195Z,10.30
2022-11-05T14:21:27.230Z,10.30
2022-11-05T14:23:39.209Z,10.30
2022-11-05T14:25:41.028Z,10.30
2022-11-05T14:27:47.881Z,10.30
2022-11-05T14:29:50.300Z,10.00
2022-11-05T14:32:08.249Z,9.80
2022-11-05T14:34:11.037Z,9.60
2022-11-05T14:36:32.455Z,9.50
2022-11-05T14:38:34.337Z,9.40
2022-11-05T14:40:42.410Z,9.20
2022-11-05T14:42:51.826Z,9.00
2022-11-05T14:45:24.599Z,8.90
2022-11-05T14:47:27.796Z,8.70
2022-11-05T14:49:33.795Z,8.60
2022-11-05T14:51:44.184Z,8.50
2022-11-05T14:53:46.581Z,8.50
2022-11-05T14:55:59.656Z,8.50
2022-11-05T14:58:23.008Z,8.40
2022-11-05T15:00:36.584Z,8.40
2022-11-05T15:02:38.669Z,8.30
2022-11-05T15:04:42.717Z,8.30
2022-11-05T15:07:02.716Z,8.20
2022-11-05T15:09:29.500Z,8.20
2022-11-05T15:11:43.442Z,8.20
2022-11-05T15:14:03.787Z,8.20
2022-11-05T15:16:07.078Z,8.10
2022-11-05T15:18:29.638Z,8.20
2022-11-05T15:20:44.967Z,8.10
2022-11-05T15:23:09.774Z,8.00
2022-11-05T15:25:27.453Z,7.90
2022-11-05T15:27:40.850Z,7.90
2022-11-05T15:29:43.179Z,7.90
2022-11-05T15:31:46.413Z,7.80
2022-11-05T15:33:48.721Z,7.90
2022-11-05T15:35:50.781Z,7.90
2022-11-05T15:37:57.425Z,7.90
2022-11-05T15:40:25.338Z,7.90
2022-11-05T15:42:27.970Z,7.90
2022-11-05T15:44:38.416Z,8.10
2022-11-05T15:46:40.302Z,8.20
2022-11-05T15:48:50.078Z,8.10
2022-11-05T15:50:52.179Z,8.00
2022-11-05T15:52:55.383Z,7.90
2022-11-05T15:55:18.523Z,7.90
2022-11-05T15:57:26.774Z,7.90
2022-11-05T15:59:30.275Z,7.90
2022-11-05T16:01:35.905Z,8.00
2022-11-05T16:03:39.788Z,8.00
2022-11-05T16:05:47.970Z,8.00
2022-11-05T16:07:50.213Z,8.00
2022-11-05T16:09:58.380Z,8.00
2022-11-05T16:12:18.666Z,7.90
2022-11-05T16:14:20.722Z,7.90
2022-11-05T16:16:24.364Z,7.80
2022-11-05T16:18:36.230Z,7.80
2022-11-05T16:20:38.861Z,7.80
2022-11-05T16:22:49.986Z,7.80
2022-11-05T16:24:51.897Z,7.80
2022-11-05T16:27:03.901Z,7.80
2022-11-05T16:29:25.310Z,7.70
2022-11-05T16:31:32.338Z,7.70
2022-11-05T16:33:44.089Z,7.70
2022-11-05T16:35:49.741Z,7.60
2022-11-05T16:37:53.766Z,7.60
2022-11-05T16:39:56.185Z,7.60
2022-11-05T16:41:58.143Z,7.60
2022-11-05T16:44:00.358Z,7.60
2022-11-05T16:46:02.466Z,7.60
2022-11-05T16:48:04.256Z,7.60
2022-11-05T16:50:23.515Z,7.70
2022-11-05T16:52:25.506Z,7.60
2022-11-05T16:54:27.458Z,7.70
2022-11-05T16:56:29.478Z,7.60
2022-11-05T16:58:31.527Z,7.70
2022-11-05T17:00:33.561Z,7.60
2022-11-05T17:02:35.567Z,7.60
2022-11-05T17:04:37.593Z,7.50
2022-11-05T17:06:39.646Z,7.50
2022-11-05T17:08:42.166Z,7.50
2022-11-05T17:10:44.288Z,7.40
2022-11-05T17:12:46.443Z,7.30
2022-11-05T17:14:48.394Z,7.30
2022-11-05T17:16:50.319Z,7.20
2022-11-05T17:18:52.382Z,7.10
2022-11-05T17:20:57.474Z,7.10
2022-11-05T17:23:00.423Z,7.10
2022-11-05T17:25:02.304Z,7.00
2022-11-05T17:27:04.246Z,6.90
2022-11-05T17:29:06.256Z,6.90
2022-11-05T17:31:09.407Z,6.80
2022-11-05T17:33:12.462Z,6.80
2022-11-05T17:35:15.009Z,6.70
2022-11-05T17:37:16.965Z,6.70
2022-11-05T17:39:19.065Z,6.60
2022-11-05T17:41:22.487Z,6.70
2022-11-05T17:43:24.466Z,6.70
2022-11-05T17:45:26.454Z,6.70
2022-11-05T17:47:29.473Z,6.70
2022-11-05T17:49:31.502Z,6.70
2022-11-05T17:51:34.636Z,6.60
2022-11-05T17:53:37.249Z,6.60
2022-11-05T17:55:46.910Z,6.60
2022-11-05T17:57:50.665Z,6.60
2022-11-05T17:59:53.297Z,6.60
2022-11-05T18:01:55.500Z,6.60
2022-11-05T18:03:58.932Z,6.50
2022-11-05T18:06:06.950Z,6.50
2022-11-05T18:08:10.096Z,6.50
2022-11-05T18:10:12.917Z,6.40
2022-11-05T18:12:15.038Z,6.30
2022-11-05T18:14:22.842Z,6.30
2022-11-05T18:16:26.138Z,6.30
2022-11-05T18:18:28.464Z,6.30
2022-11-05T18:20:30.614Z,6.30
2022-11-05T18:22:34.166Z,6.30
2022-11-05T18:24:36.577Z,6.30
2022-11-05T18:26:38.861Z,6.40
2022-11-05T18:28:41.783Z,6.40
2022-11-05T18:30:44.600Z,6.40
2022-11-05T18:32:48.215Z,6.40
2022-11-05T18:34:51.092Z,6.40
2022-11-05T18:36:56.556Z,6.40
2022-11-05T18:39:02.255Z,6.40
2022-11-05T18:41:08.925Z,6.40
2022-11-05T18:43:11.536Z,6.50
2022-11-05T18:45:14.022Z,6.50
2022-11-05T18:47:16.556Z,6.60
2022-11-05T18:49:18.893Z,6.60
2022-11-05T18:51:21.502Z,6.60
2022-11-05T18:53:23.942Z,6.60
2022-11-05T18:55:26.879Z,6.60
2022-11-05T18:57:29.721Z,6.60
2022-11-05T18:59:38.179Z,6.60
2022-11-05T19:01:41.660Z,6.50
2022-11-05T19:03:44.365Z,6.50
2022-11-05T19:05:46.996Z,6.50
2022-11-05T19:07:49.245Z,6.50
2022-11-05T19:09:51.482Z,6.50
2022-11-05T19:11:57.105Z,6.50
2022-11-05T19:13:59.423Z,6.40
2022-11-05T19:16:01.566Z,6.40
2022-11-05T19:18:03.618Z,6.40
2022-11-05T19:20:07.312Z,6.50
2022-11-05T19:22:10.552Z,6.50
2022-11-05T19:24:16.792Z,6.50
2022-11-05T19:26:28.174Z,6.60
2022-11-05T19:28:30.763Z,6.60
2022-11-05T19:30:32.744Z,6.60
2022-11-05T19:32:34.889Z,6.60
2022-11-05T19:34:36.866Z,6.60
2022-11-05T19:36:38.802Z,6.50
2022-11-05T19:38:40.986Z,6.60
2022-11-05T19:40:42.968Z,6.50
2022-11-05T19:42:44.914Z,6.60
2022-11-05T19:44:46.843Z,6.50
2022-11-05T19:46:48.801Z,6.60
2022-11-05T19:48:51.638Z,6.60
2022-11-05T19:50:53.885Z,6.60
2022-11-05T19:52:55.953Z,6.60
2022-11-05T19:54:57.794Z,6.50
2022-11-05T19:56:59.826Z,6.50
2022-11-05T19:59:03.360Z,6.40
2022-11-05T20:01:05.821Z,6.50
2022-11-05T20:03:08.309Z,6.50
2022-11-05T20:05:10.217Z,6.50
2022-11-05T20:07:13.171Z,6.50
2022-11-05T20:09:21.643Z,6.50
2022-11-05T20:11:24.047Z,6.50
2022-11-05T20:13:26.228Z,6.50
2022-11-05T20:15:28.336Z,6.50
2022-11-05T20:17:30.182Z,6.60
2022-11-05T20:19:32.307Z,6.60
2022-11-05T20:21:34.496Z,6.60
2022-11-05T20:23:36.764Z,6.60
2022-11-05T20:25:39.012Z,6.60
2022-11-05T20:27:42.222Z,6.60
2022-11-05T20:29:44.086Z,6.60
2022-11-05T20:31:46.165Z,6.50
2022-11-05T20:33:48.078Z,6.60
2022-11-05T20:35:50.012Z,6.50
2022-11-05T20:37:54.181Z,6.40
2022-11-05T20:39:56.320Z,6.30
2022-11-05T20:42:00.466Z,6.20
2022-11-05T20:44:03.843Z,6.20
2022-11-05T20:46:05.836Z,6.20
2022-11-05T20:48:07.663Z,6.20
2022-11-05T20:50:10.055Z,6.10
2022-11-05T20:52:12.333Z,6.20
2022-11-05T20:54:14.553Z,6.20
2022-11-05T20:56:24.915Z,6.10
2022-11-05T20:58:26.831Z,6.10
2022-11-05T21:00:28.779Z,6.10
2022-11-05T21:02:30.752Z,6.10
2022-11-05T21:04:32.659Z,6.20
2022-11-05T21:06:35.954Z,6.20
2022-11-05T21:08:38.356Z,6.20
2022-11-05T21:10:40.586Z,6.20
2022-11-05T21:12:42.705Z,6.20
2022-11-05T21:14:44.580Z,6.20
2022-11-05T21:16:46.460Z,6.20
2022-11-05T21:18:48.397Z,6.20
2022-11-05T21:20:50.909Z,6.20
2022-11-05T21:22:52.855Z,6.10
2022-11-05T21:24:56.827Z,6.10
2022-11-05T21:26:58.697Z,6.10
2022-11-05T21:29:00.620Z,6.00
2022-11-05T21:31:03.799Z,6.00
2022-11-05T21:33:05.982Z,6.00
2022-11-05T21:35:08.253Z,6.10
2022-11-05T21:37:10.094Z,6.00
2022-11-05T21:39:13.656Z,6.00
2022-11-05T21:41:15.823Z,5.90
2022-11-05T21:43:17.827Z,5.80
2022-11-05T21:45:19.699Z,5.70
2022-11-05T21:47:21.642Z,5.70
2022-11-05T21:49:24.223Z,5.70
2022-11-05T21:51:44.447Z,5.70
2022-11-05T21:54:04.995Z,5.70
2022-11-05T21:56:38.607Z,5.80
2022-11-05T21:58:59.217Z,5.80
2022-11-05T22:01:01.658Z,5.90
2022-11-05T22:03:03.633Z,5.90
2022-11-05T22:05:05.922Z,5.80
2022-11-05T22:07:09.727Z,5.90
2022-11-05T22:09:11.576Z,5.90
2022-11-05T22:11:13.455Z,5.90
2022-11-05T22:13:15.373Z,5.90
2022-11-05T22:15:17.241Z,5.90
2022-11-05T22:17:19.587Z,5.80
2022-11-05T22:19:22.286Z,5.80
2022-11-05T22:21:24.158Z,5.80
2022-11-05T22:23:26.021Z,5.70
2022-11-05T22:25:27.883Z,5.60
2022-11-05T22:27:29.734Z,5.50
2022-11-05T22:29:31.761Z,5.60
2022-11-05T22:31:36.572Z,5.60
2022-11-05T22:33:38.949Z,5.70
2022-11-05T22:35:40.805Z,5.60
2022-11-05T22:37:42.709Z,5.60
2022-11-05T22:39:44.825Z,5.50
2022-11-05T22:41:46.641Z,5.50
2022-11-05T22:43:49.354Z,5.40
2022-11-05T22:45:51.787Z,5.40
2022-11-05T22:47:53.628Z,5.40
2022-11-05T22:49:55.548Z,5.30
2022-11-05T22:51:57.685Z,5.40
2022-11-05T22:53:59.457Z,5.50
2022-11-05T22:56:09.946Z,5.50
2022-11-05T22:58:11.943Z,5.50
2022-11-05T23:00:15.477Z,5.50
2022-11-05T23:02:19.785Z,5.50
2022-11-05T23:04:21.943Z,5.50
2022-11-05T23:06:43.594Z,5.50
2022-11-05T23:09:04.148Z,5.50
2022-11-05T23:11:33.255Z,5.40
2022-11-05T23:13:35.259Z,5.40
2022-11-05T23:15:55.896Z,5.40
2022-11-05T23:18:16.371Z,5.40
2022-11-05T23:20:39.945Z,5.30
2022-11-05T23:23:00.509Z,5.40
2022-11-05T23:25:04.146Z,5.30
2022-11-05T23:27:06.033Z,5.30
2022-11-05T23:29:07.940Z,5.30
2022-11-05T23:31:28.377Z,5.40
2022-11-05T23:33:34.871Z,5.30
2022-11-05T23:35:55.397Z,5.20
2022-11-05T23:38:15.842Z,5.30
2022-11-05T23:40:20.973Z,5.30
2022-11-05T23:42:41.975Z,5.20
2022-11-05T23:45:02.289Z,5.30
2022-11-05T23:47:22.718Z,5.30
2022-11-05T23:49:24.926Z,5.30
2022-11-05T23:51:26.775Z,5.20
2022-11-05T23:53:30.633Z,5.20
2022-11-05T23:55:32.529Z,5.20
2022-11-05T23:57:34.509Z,5.20
2022-11-05T23:59:36.428Z,5.30
